CheckWX is a tool to help pilots better visualize weather data.  It is not intended as a substitute for an official pre-flight weather briefing.

22:59:51 UTC

LKKV METAR
Karlovy Vary International Airport
Karlovy Vary, Czech Republic
Current

60 mins ago

LKKV 192200Z 08001KT CAVOK 15/14 Q1017
Observed
Jul-19 @ 22:00 UTC
Wind
  • 080° at 1 KTS
Visibility
10,000+ meters
Flight Rules
VFR
Cloud Levels
  • Clear skies
Temperature
15°C / 59°F
Dewpoint
14°C / 57°F
Humidity
94%
Altimeter
30.03" Hg
Pressure
1016.92 hPa
Previous

2 hours ago

LKKV 192100Z 08003KT CAVOK 15/14 Q1017
Observed
Jul-19 @ 21:00 UTC
Wind
  • 080° at 3 KTS
Visibility
10,000+ meters
Flight Rules
VFR
Cloud Levels
  • Clear skies
Temperature
15°C / 59°F
Dewpoint
14°C / 57°F
Humidity
94%
Altimeter
30.03" Hg
Pressure
1016.92 hPa
Previous

3 hours ago

LKKV 192000Z 00000KT CAVOK 16/14 Q1017
Observed
Jul-19 @ 20:00 UTC
Visibility
10,000+ meters
Flight Rules
VFR
Cloud Levels
  • Clear skies
Temperature
16°C / 61°F
Dewpoint
14°C / 57°F
Humidity
88%
Altimeter
30.03" Hg
Pressure
1016.92 hPa